This is the latest recevied weather packets stored in our database for station/object OE-11073. If no packets are shown the sender has not sent any weather packets the latest 10 day(s).
| Time | Temp. | Humidity | Pressure | Rain* | Wind** | Luminosity | Snow |
|---|---|---|---|---|---|---|---|
| 1787904310 | 20° C | 74% | - | 0 mm | - | 451 W/m² | - |
| 1787903710 | 20° C | 78% | - | 0 mm | - | 413 W/m² | - |
| 1787902882 | 18.89° C | 77% | - | 0 mm | - | 367 W/m² | - |
| 1787902510 | 18.33° C | 80% | - | 0 mm | - | 352 W/m² | - |
| 1787901910 | 18.33° C | 80% | - | 0 mm | - | 344 W/m² | - |
| 1787901082 | 17.78° C | 88% | - | 0 mm | - | 268 W/m² | - |
| 1787900709 | 16.67° C | 89% | - | 0 mm | - | 145 W/m² | - |
| 1787900110 | 16.67° C | 88% | - | 0 mm | - | 161 W/m² | - |
| 1787899283 | 16.11° C | 92% | - | 0 mm | - | 153 W/m² | - |
| 1787898909 | 15.56° C | 92% | - | 0 mm | - | 145 W/m² | - |
| 1787898310 | 15.56° C | 91% | - | 0 mm | - | 99 W/m² | - |
| 1787897482 | 15.56° C | 92% | - | 0 mm | - | 107 W/m² | - |
| 1787897109 | 15.56° C | 92% | - | 0 mm | - | 107 W/m² | - |
| 1787896509 | 15° C | 94% | - | 0 mm | - | 99 W/m² | - |
| 1787895682 | 14.44° C | 94% | - | 0 mm | - | 84 W/m² | - |
| 1787895310 | 13.89° C | 95% | - | 0 mm | - | 69 W/m² | - |
| 1787894710 | 13.89° C | 95% | - | 0 mm | - | 54 W/m² | - |
| 1787893883 | 13.89° C | 96% | - | 0 mm | - | 38 W/m² | - |
| 1787893510 | 13.33° C | 96% | - | 0 mm | - | 15 W/m² | - |
| 1787892910 | 12.78° C | 95% | - | 0 mm | - | 8 W/m² | - |
| 1787892082 | 12.78° C | 97% | - | 0 mm | - | 0 W/m² | - |
| 1787891709 | 13.33° C | 97% | - | 0 mm | - | 0 W/m² | - |
| 1787891110 | 12.78° C | 95% | - | 0 mm | - | 0 W/m² | - |
| 1787890282 | 13.33° C | 95% | - | 0 mm | - | 0 W/m² | - |
| 1787889910 | 13.33° C | 95% | - | 0 mm | - | 0 W/m² | - |
* Rain latest hour (hover to see other rain measurements)
** Current wind speed in m/s (hover to see current wind gust speed)